sensor_id;sensor_type;location;lat;lon;timestamp;P1;durP1;ratioP1;P2;durP2;ratioP2
51848;SDS011;38952;51.090;-1.832;2022-07-24T00:01:31;11.98;;;3.90;;
51848;SDS011;38952;51.090;-1.832;2022-07-24T00:03:57;7.38;;;2.92;;
51848;SDS011;38952;51.090;-1.832;2022-07-24T00:06:22;8.32;;;3.22;;
51848;SDS011;38952;51.090;-1.832;2022-07-24T00:08:48;8.00;;;2.45;;
51848;SDS011;38952;51.090;-1.832;2022-07-24T00:11:14;7.25;;;2.58;;
51848;SDS011;38952;51.090;-1.832;2022-07-24T00:13:39;6.53;;;2.88;;
51848;SDS011;38952;51.090;-1.832;2022-07-24T00:16:05;7.10;;;3.00;;
51848;SDS011;38952;51.090;-1.832;2022-07-24T00:18:31;6.90;;;2.75;;
51848;SDS011;38952;51.090;-1.832;2022-07-24T00:20:56;12.32;;;2.63;;
51848;SDS011;38952;51.090;-1.832;2022-07-24T00:23:22;12.55;;;3.53;;
51848;SDS011;38952;51.090;-1.832;2022-07-24T00:25:50;10.13;;;2.92;;
51848;SDS011;38952;51.090;-1.832;2022-07-24T00:28:17;5.35;;;2.65;;
51848;SDS011;38952;51.090;-1.832;2022-07-24T00:30:42;4.45;;;2.58;;
51848;SDS011;38952;51.090;-1.832;2022-07-24T00:33:08;7.57;;;2.40;;
51848;SDS011;38952;51.090;-1.832;2022-07-24T00:35:33;6.43;;;2.30;;
51848;SDS011;38952;51.090;-1.832;2022-07-24T00:37:59;10.00;;;2.88;;
51848;SDS011;38952;51.090;-1.832;2022-07-24T00:40:25;3.38;;;2.13;;
51848;SDS011;38952;51.090;-1.832;2022-07-24T00:42:51;6.45;;;2.67;;
51848;SDS011;38952;51.090;-1.832;2022-07-24T00:45:17;6.07;;;2.45;;
51848;SDS011;38952;51.090;-1.832;2022-07-24T00:47:42;6.65;;;2.75;;
51848;SDS011;38952;51.090;-1.832;2022-07-24T00:50:08;7.13;;;2.55;;
51848;SDS011;38952;51.090;-1.832;2022-07-24T00:52:34;9.45;;;3.03;;
51848;SDS011;38952;51.090;-1.832;2022-07-24T00:55:00;4.72;;;2.53;;
51848;SDS011;38952;51.090;-1.832;2022-07-24T00:57:26;6.07;;;2.83;;
51848;SDS011;38952;51.090;-1.832;2022-07-24T00:59:51;14.20;;;2.80;;
51848;SDS011;38952;51.090;-1.832;2022-07-24T01:02:17;7.38;;;2.33;;
51848;SDS011;38952;51.090;-1.832;2022-07-24T01:04:42;4.80;;;1.95;;
51848;SDS011;38952;51.090;-1.832;2022-07-24T01:07:08;5.68;;;2.05;;
51848;SDS011;38952;51.090;-1.832;2022-07-24T01:09:33;9.70;;;2.92;;
51848;SDS011;38952;51.090;-1.832;2022-07-24T01:12:00;11.40;;;2.42;;
51848;SDS011;38952;51.090;-1.832;2022-07-24T01:14:27;7.45;;;2.22;;
51848;SDS011;38952;51.090;-1.832;2022-07-24T01:16:52;7.38;;;3.10;;
51848;SDS011;38952;51.090;-1.832;2022-07-24T01:19:18;11.73;;;2.15;;
51848;SDS011;38952;51.090;-1.832;2022-07-24T01:21:47;4.53;;;2.33;;
51848;SDS011;38952;51.090;-1.832;2022-07-24T01:24:14;2.92;;;2.13;;
51848;SDS011;38952;51.090;-1.832;2022-07-24T01:26:40;9.60;;;2.60;;
51848;SDS011;38952;51.090;-1.832;2022-07-24T01:29:07;9.38;;;2.63;;
51848;SDS011;38952;51.090;-1.832;2022-07-24T01:31:32;6.75;;;3.00;;
51848;SDS011;38952;51.090;-1.832;2022-07-24T01:33:58;8.93;;;3.00;;
51848;SDS011;38952;51.090;-1.832;2022-07-24T01:36:23;7.65;;;3.28;;
51848;SDS011;38952;51.090;-1.832;2022-07-24T01:38:49;4.68;;;3.00;;
51848;SDS011;38952;51.090;-1.832;2022-07-24T01:41:14;8.43;;;3.42;;
51848;SDS011;38952;51.090;-1.832;2022-07-24T01:43:40;5.05;;;3.05;;
51848;SDS011;38952;51.090;-1.832;2022-07-24T01:46:05;6.45;;;3.03;;
51848;SDS011;38952;51.090;-1.832;2022-07-24T01:48:31;6.65;;;3.08;;
51848;SDS011;38952;51.090;-1.832;2022-07-24T01:50:56;15.48;;;3.35;;
51848;SDS011;38952;51.090;-1.832;2022-07-24T01:53:22;5.28;;;2.90;;
51848;SDS011;38952;51.090;-1.832;2022-07-24T01:55:51;6.32;;;3.22;;
51848;SDS011;38952;51.090;-1.832;2022-07-24T01:58:17;8.90;;;2.78;;
51848;SDS011;38952;51.090;-1.832;2022-07-24T02:00:43;3.90;;;2.75;;
51848;SDS011;38952;51.090;-1.832;2022-07-24T02:03:08;6.88;;;3.55;;
51848;SDS011;38952;51.090;-1.832;2022-07-24T02:05:34;3.45;;;2.35;;
51848;SDS011;38952;51.090;-1.832;2022-07-24T02:07:59;3.38;;;2.20;;
51848;SDS011;38952;51.090;-1.832;2022-07-24T02:10:26;6.25;;;2.78;;
51848;SDS011;38952;51.090;-1.832;2022-07-24T02:12:53;3.58;;;2.00;;
51848;SDS011;38952;51.090;-1.832;2022-07-24T02:15:19;4.38;;;2.55;;
51848;SDS011;38952;51.090;-1.832;2022-07-24T02:17:48;6.53;;;2.78;;
51848;SDS011;38952;51.090;-1.832;2022-07-24T02:20:18;7.38;;;2.53;;
51848;SDS011;38952;51.090;-1.832;2022-07-24T02:22:44;6.75;;;2.20;;
51848;SDS011;38952;51.090;-1.832;2022-07-24T02:25:10;6.90;;;2.95;;
51848;SDS011;38952;51.090;-1.832;2022-07-24T02:27:36;9.15;;;2.10;;
51848;SDS011;38952;51.090;-1.832;2022-07-24T02:30:03;5.57;;;2.13;;
51848;SDS011;38952;51.090;-1.832;2022-07-24T02:32:30;5.22;;;2.17;;
51848;SDS011;38952;51.090;-1.832;2022-07-24T02:34:56;5.00;;;2.40;;
51848;SDS011;38952;51.090;-1.832;2022-07-24T02:37:21;7.47;;;2.28;;
51848;SDS011;38952;51.090;-1.832;2022-07-24T02:39:47;6.10;;;2.90;;
51848;SDS011;38952;51.090;-1.832;2022-07-24T02:42:12;5.00;;;2.20;;
51848;SDS011;38952;51.090;-1.832;2022-07-24T02:44:37;5.60;;;2.28;;
51848;SDS011;38952;51.090;-1.832;2022-07-24T02:47:03;6.25;;;2.20;;
51848;SDS011;38952;51.090;-1.832;2022-07-24T02:49:28;8.85;;;2.08;;
51848;SDS011;38952;51.090;-1.832;2022-07-24T02:51:54;6.28;;;2.35;;
51848;SDS011;38952;51.090;-1.832;2022-07-24T02:54:19;7.22;;;2.20;;
51848;SDS011;38952;51.090;-1.832;2022-07-24T02:56:45;4.03;;;2.10;;
51848;SDS011;38952;51.090;-1.832;2022-07-24T02:59:11;8.05;;;2.72;;
51848;SDS011;38952;51.090;-1.832;2022-07-24T03:01:37;7.25;;;2.10;;
51848;SDS011;38952;51.090;-1.832;2022-07-24T03:04:02;6.97;;;2.42;;
51848;SDS011;38952;51.090;-1.832;2022-07-24T03:06:28;7.22;;;2.50;;
51848;SDS011;38952;51.090;-1.832;2022-07-24T03:08:53;5.03;;;2.08;;
51848;SDS011;38952;51.090;-1.832;2022-07-24T03:11:19;5.13;;;1.85;;
51848;SDS011;38952;51.090;-1.832;2022-07-24T03:13:44;10.65;;;2.50;;
51848;SDS011;38952;51.090;-1.832;2022-07-24T03:16:09;8.75;;;2.67;;
51848;SDS011;38952;51.090;-1.832;2022-07-24T03:18:35;4.25;;;2.05;;
51848;SDS011;38952;51.090;-1.832;2022-07-24T03:21:00;4.38;;;2.05;;
51848;SDS011;38952;51.090;-1.832;2022-07-24T03:23:26;8.20;;;2.17;;
51848;SDS011;38952;51.090;-1.832;2022-07-24T03:25:51;3.28;;;1.90;;
51848;SDS011;38952;51.090;-1.832;2022-07-24T03:28:18;10.00;;;2.47;;
51848;SDS011;38952;51.090;-1.832;2022-07-24T03:30:43;10.68;;;2.53;;
51848;SDS011;38952;51.090;-1.832;2022-07-24T03:33:09;6.38;;;2.63;;
51848;SDS011;38952;51.090;-1.832;2022-07-24T03:35:34;5.90;;;2.03;;
51848;SDS011;38952;51.090;-1.832;2022-07-24T03:37:59;4.68;;;1.80;;
51848;SDS011;38952;51.090;-1.832;2022-07-24T03:40:25;5.03;;;1.98;;
51848;SDS011;38952;51.090;-1.832;2022-07-24T03:42:50;5.35;;;2.22;;
51848;SDS011;38952;51.090;-1.832;2022-07-24T03:45:16;5.80;;;1.90;;
51848;SDS011;38952;51.090;-1.832;2022-07-24T03:47:42;5.93;;;2.20;;
51848;SDS011;38952;51.090;-1.832;2022-07-24T03:50:08;5.38;;;1.98;;
51848;SDS011;38952;51.090;-1.832;2022-07-24T03:52:34;4.53;;;2.10;;
51848;SDS011;38952;51.090;-1.832;2022-07-24T03:54:59;3.92;;;2.13;;
51848;SDS011;38952;51.090;-1.832;2022-07-24T03:57:24;6.55;;;2.30;;
51848;SDS011;38952;51.090;-1.832;2022-07-24T03:59:50;4.85;;;2.13;;
51848;SDS011;38952;51.090;-1.832;2022-07-24T04:02:15;7.65;;;2.45;;
51848;SDS011;38952;51.090;-1.832;2022-07-24T04:04:41;4.80;;;2.25;;
51848;SDS011;38952;51.090;-1.832;2022-07-24T04:07:06;9.95;;;2.38;;
51848;SDS011;38952;51.090;-1.832;2022-07-24T04:09:32;8.20;;;2.60;;
51848;SDS011;38952;51.090;-1.832;2022-07-24T04:11:58;9.63;;;2.20;;
51848;SDS011;38952;51.090;-1.832;2022-07-24T04:14:24;8.35;;;2.53;;
51848;SDS011;38952;51.090;-1.832;2022-07-24T04:16:49;5.25;;;2.42;;
51848;SDS011;38952;51.090;-1.832;2022-07-24T04:19:15;8.00;;;2.97;;
51848;SDS011;38952;51.090;-1.832;2022-07-24T04:21:41;5.85;;;2.33;;
51848;SDS011;38952;51.090;-1.832;2022-07-24T04:24:06;4.85;;;2.50;;
51848;SDS011;38952;51.090;-1.832;2022-07-24T04:26:32;7.47;;;2.40;;
51848;SDS011;38952;51.090;-1.832;2022-07-24T04:28:57;7.35;;;2.47;;
51848;SDS011;38952;51.090;-1.832;2022-07-24T04:31:23;13.50;;;3.22;;
51848;SDS011;38952;51.090;-1.832;2022-07-24T04:33:48;6.65;;;2.28;;
51848;SDS011;38952;51.090;-1.832;2022-07-24T04:36:14;5.00;;;2.33;;
51848;SDS011;38952;51.090;-1.832;2022-07-24T04:38:39;7.50;;;2.75;;
51848;SDS011;38952;51.090;-1.832;2022-07-24T04:41:05;5.88;;;2.30;;
51848;SDS011;38952;51.090;-1.832;2022-07-24T04:43:30;9.15;;;2.80;;
51848;SDS011;38952;51.090;-1.832;2022-07-24T04:45:56;9.32;;;2.88;;
51848;SDS011;38952;51.090;-1.832;2022-07-24T04:48:21;10.23;;;3.00;;
51848;SDS011;38952;51.090;-1.832;2022-07-24T04:50:47;14.88;;;3.10;;
51848;SDS011;38952;51.090;-1.832;2022-07-24T04:53:12;6.30;;;2.58;;
51848;SDS011;38952;51.090;-1.832;2022-07-24T04:55:37;8.07;;;2.90;;
51848;SDS011;38952;51.090;-1.832;2022-07-24T04:58:03;6.03;;;2.28;;
51848;SDS011;38952;51.090;-1.832;2022-07-24T05:00:30;6.97;;;2.80;;
51848;SDS011;38952;51.090;-1.832;2022-07-24T05:02:55;7.18;;;2.92;;
51848;SDS011;38952;51.090;-1.832;2022-07-24T05:05:21;8.73;;;2.50;;
51848;SDS011;38952;51.090;-1.832;2022-07-24T05:07:46;4.75;;;2.08;;
51848;SDS011;38952;51.090;-1.832;2022-07-24T05:10:12;4.88;;;1.95;;
51848;SDS011;38952;51.090;-1.832;2022-07-24T05:12:37;7.18;;;2.47;;
51848;SDS011;38952;51.090;-1.832;2022-07-24T05:15:04;6.00;;;2.30;;
51848;SDS011;38952;51.090;-1.832;2022-07-24T05:17:30;3.00;;;1.73;;
51848;SDS011;38952;51.090;-1.832;2022-07-24T05:19:56;5.18;;;2.30;;
51848;SDS011;38952;51.090;-1.832;2022-07-24T05:22:21;8.23;;;2.10;;
51848;SDS011;38952;51.090;-1.832;2022-07-24T05:24:47;8.57;;;2.72;;
51848;SDS011;38952;51.090;-1.832;2022-07-24T05:27:12;5.13;;;2.17;;
51848;SDS011;38952;51.090;-1.832;2022-07-24T05:29:38;6.03;;;2.47;;
51848;SDS011;38952;51.090;-1.832;2022-07-24T05:32:04;5.25;;;2.70;;
51848;SDS011;38952;51.090;-1.832;2022-07-24T05:34:30;9.48;;;2.85;;
51848;SDS011;38952;51.090;-1.832;2022-07-24T05:36:55;8.55;;;2.83;;
51848;SDS011;38952;51.090;-1.832;2022-07-24T05:39:21;7.38;;;2.13;;
51848;SDS011;38952;51.090;-1.832;2022-07-24T05:41:46;7.55;;;2.28;;
51848;SDS011;38952;51.090;-1.832;2022-07-24T05:44:11;6.38;;;2.45;;
51848;SDS011;38952;51.090;-1.832;2022-07-24T05:46:37;5.95;;;1.98;;
51848;SDS011;38952;51.090;-1.832;2022-07-24T05:49:02;9.30;;;2.53;;
51848;SDS011;38952;51.090;-1.832;2022-07-24T05:51:28;8.65;;;2.58;;
51848;SDS011;38952;51.090;-1.832;2022-07-24T05:53:53;4.00;;;2.42;;
51848;SDS011;38952;51.090;-1.832;2022-07-24T05:56:19;8.25;;;2.72;;
51848;SDS011;38952;51.090;-1.832;2022-07-24T05:58:44;6.18;;;2.45;;
51848;SDS011;38952;51.090;-1.832;2022-07-24T06:01:09;7.50;;;2.47;;
51848;SDS011;38952;51.090;-1.832;2022-07-24T06:03:35;9.93;;;2.17;;
51848;SDS011;38952;51.090;-1.832;2022-07-24T06:06:02;4.35;;;2.00;;
51848;SDS011;38952;51.090;-1.832;2022-07-24T06:08:28;6.47;;;2.58;;
51848;SDS011;38952;51.090;-1.832;2022-07-24T06:10:54;5.30;;;2.28;;
51848;SDS011;38952;51.090;-1.832;2022-07-24T06:13:19;3.42;;;2.10;;
51848;SDS011;38952;51.090;-1.832;2022-07-24T06:15:45;5.35;;;2.20;;
51848;SDS011;38952;51.090;-1.832;2022-07-24T06:18:10;9.75;;;2.42;;
51848;SDS011;38952;51.090;-1.832;2022-07-24T06:20:36;7.80;;;2.28;;
51848;SDS011;38952;51.090;-1.832;2022-07-24T06:23:01;6.63;;;2.33;;
51848;SDS011;38952;51.090;-1.832;2022-07-24T06:25:27;6.82;;;2.58;;
51848;SDS011;38952;51.090;-1.832;2022-07-24T06:27:52;5.75;;;2.03;;
51848;SDS011;38952;51.090;-1.832;2022-07-24T06:30:22;8.57;;;2.20;;
51848;SDS011;38952;51.090;-1.832;2022-07-24T06:32:51;3.83;;;1.77;;
51848;SDS011;38952;51.090;-1.832;2022-07-24T06:35:18;7.35;;;2.65;;
51848;SDS011;38952;51.090;-1.832;2022-07-24T06:37:43;5.35;;;1.95;;
51848;SDS011;38952;51.090;-1.832;2022-07-24T06:40:09;9.95;;;2.33;;
51848;SDS011;38952;51.090;-1.832;2022-07-24T06:42:35;5.18;;;2.72;;
51848;SDS011;38952;51.090;-1.832;2022-07-24T06:45:00;3.90;;;1.63;;
51848;SDS011;38952;51.090;-1.832;2022-07-24T06:47:26;6.00;;;2.35;;
51848;SDS011;38952;51.090;-1.832;2022-07-24T06:49:52;9.38;;;2.40;;
51848;SDS011;38952;51.090;-1.832;2022-07-24T06:52:18;6.93;;;1.63;;
51848;SDS011;38952;51.090;-1.832;2022-07-24T06:54:44;3.90;;;2.20;;
51848;SDS011;38952;51.090;-1.832;2022-07-24T06:57:09;5.75;;;1.88;;
51848;SDS011;38952;51.090;-1.832;2022-07-24T06:59:35;6.93;;;1.90;;
51848;SDS011;38952;51.090;-1.832;2022-07-24T07:02:00;5.80;;;1.75;;
51848;SDS011;38952;51.090;-1.832;2022-07-24T07:04:26;4.43;;;1.60;;
51848;SDS011;38952;51.090;-1.832;2022-07-24T07:06:55;3.05;;;1.90;;
51848;SDS011;38952;51.090;-1.832;2022-07-24T07:09:20;4.45;;;1.42;;
51848;SDS011;38952;51.090;-1.832;2022-07-24T07:11:45;5.57;;;1.88;;
51848;SDS011;38952;51.090;-1.832;2022-07-24T07:14:11;6.70;;;2.00;;
51848;SDS011;38952;51.090;-1.832;2022-07-24T07:16:36;3.90;;;1.67;;
51848;SDS011;38952;51.090;-1.832;2022-07-24T07:19:02;4.10;;;1.50;;
51848;SDS011;38952;51.090;-1.832;2022-07-24T07:21:27;5.22;;;1.70;;
51848;SDS011;38952;51.090;-1.832;2022-07-24T07:23:53;2.83;;;1.33;;
51848;SDS011;38952;51.090;-1.832;2022-07-24T07:26:19;2.85;;;1.15;;
51848;SDS011;38952;51.090;-1.832;2022-07-24T07:28:44;9.02;;;1.98;;
51848;SDS011;38952;51.090;-1.832;2022-07-24T07:31:13;5.15;;;1.90;;
51848;SDS011;38952;51.090;-1.832;2022-07-24T07:33:38;4.68;;;1.55;;
51848;SDS011;38952;51.090;-1.832;2022-07-24T07:36:04;7.32;;;1.80;;
51848;SDS011;38952;51.090;-1.832;2022-07-24T07:38:29;5.78;;;1.95;;
51848;SDS011;38952;51.090;-1.832;2022-07-24T07:40:54;3.55;;;1.75;;
51848;SDS011;38952;51.090;-1.832;2022-07-24T07:43:20;2.10;;;1.48;;
51848;SDS011;38952;51.090;-1.832;2022-07-24T07:45:45;4.28;;;1.60;;
51848;SDS011;38952;51.090;-1.832;2022-07-24T07:48:11;5.30;;;1.63;;
51848;SDS011;38952;51.090;-1.832;2022-07-24T07:50:37;3.50;;;1.63;;
51848;SDS011;38952;51.090;-1.832;2022-07-24T07:53:02;4.32;;;1.30;;
51848;SDS011;38952;51.090;-1.832;2022-07-24T07:55:27;5.35;;;1.98;;
51848;SDS011;38952;51.090;-1.832;2022-07-24T07:57:53;6.00;;;1.75;;
51848;SDS011;38952;51.090;-1.832;2022-07-24T08:00:18;10.45;;;1.73;;
51848;SDS011;38952;51.090;-1.832;2022-07-24T08:02:44;10.02;;;1.88;;
51848;SDS011;38952;51.090;-1.832;2022-07-24T08:05:10;8.75;;;1.77;;
51848;SDS011;38952;51.090;-1.832;2022-07-24T08:07:36;4.20;;;1.30;;
51848;SDS011;38952;51.090;-1.832;2022-07-24T08:10:02;4.32;;;1.83;;
51848;SDS011;38952;51.090;-1.832;2022-07-24T08:12:28;4.13;;;1.60;;
51848;SDS011;38952;51.090;-1.832;2022-07-24T08:14:54;6.75;;;1.40;;
51848;SDS011;38952;51.090;-1.832;2022-07-24T08:17:19;5.75;;;1.80;;
51848;SDS011;38952;51.090;-1.832;2022-07-24T08:19:45;7.53;;;1.90;;
51848;SDS011;38952;51.090;-1.832;2022-07-24T08:22:11;4.95;;;1.88;;
51848;SDS011;38952;51.090;-1.832;2022-07-24T08:24:36;5.47;;;1.60;;
51848;SDS011;38952;51.090;-1.832;2022-07-24T08:27:03;3.22;;;1.65;;
51848;SDS011;38952;51.090;-1.832;2022-07-24T08:29:28;3.50;;;1.60;;
51848;SDS011;38952;51.090;-1.832;2022-07-24T08:31:54;4.78;;;1.90;;
51848;SDS011;38952;51.090;-1.832;2022-07-24T08:34:22;3.92;;;1.67;;
51848;SDS011;38952;51.090;-1.832;2022-07-24T08:36:49;5.18;;;1.90;;
51848;SDS011;38952;51.090;-1.832;2022-07-24T08:39:15;7.93;;;2.28;;
51848;SDS011;38952;51.090;-1.832;2022-07-24T08:41:41;8.27;;;2.25;;
51848;SDS011;38952;51.090;-1.832;2022-07-24T08:44:08;4.53;;;2.17;;
51848;SDS011;38952;51.090;-1.832;2022-07-24T08:46:37;5.90;;;2.40;;
51848;SDS011;38952;51.090;-1.832;2022-07-24T08:49:06;3.45;;;1.90;;
51848;SDS011;38952;51.090;-1.832;2022-07-24T08:51:36;6.47;;;2.78;;
51848;SDS011;38952;51.090;-1.832;2022-07-24T08:54:03;5.30;;;2.30;;
51848;SDS011;38952;51.090;-1.832;2022-07-24T08:56:29;3.40;;;2.03;;
51848;SDS011;38952;51.090;-1.832;2022-07-24T08:58:55;12.27;;;2.75;;
51848;SDS011;38952;51.090;-1.832;2022-07-24T09:01:21;5.70;;;2.33;;
51848;SDS011;38952;51.090;-1.832;2022-07-24T09:03:47;5.57;;;2.25;;
51848;SDS011;38952;51.090;-1.832;2022-07-24T09:06:13;8.95;;;2.40;;
51848;SDS011;38952;51.090;-1.832;2022-07-24T09:08:57;7.03;;;2.50;;
51848;SDS011;38952;51.090;-1.832;2022-07-24T09:11:25;10.00;;;2.40;;
51848;SDS011;38952;51.090;-1.832;2022-07-24T09:13:51;5.03;;;2.08;;
51848;SDS011;38952;51.090;-1.832;2022-07-24T09:16:35;3.47;;;2.15;;
51848;SDS011;38952;51.090;-1.832;2022-07-24T09:19:10;7.57;;;2.30;;
51848;SDS011;38952;51.090;-1.832;2022-07-24T09:21:40;5.70;;;2.40;;
51848;SDS011;38952;51.090;-1.832;2022-07-24T09:24:17;5.30;;;2.17;;
51848;SDS011;38952;51.090;-1.832;2022-07-24T09:26:49;5.25;;;2.08;;
51848;SDS011;38952;51.090;-1.832;2022-07-24T09:29:16;6.38;;;2.28;;
51848;SDS011;38952;51.090;-1.832;2022-07-24T09:31:59;4.60;;;1.77;;
51848;SDS011;38952;51.090;-1.832;2022-07-24T09:34:29;4.65;;;1.58;;
51848;SDS011;38952;51.090;-1.832;2022-07-24T09:37:04;8.55;;;1.85;;
51848;SDS011;38952;51.090;-1.832;2022-07-24T09:39:32;6.40;;;2.33;;
51848;SDS011;38952;51.090;-1.832;2022-07-24T09:42:01;3.35;;;1.63;;
51848;SDS011;38952;51.090;-1.832;2022-07-24T09:44:29;7.45;;;1.73;;
51848;SDS011;38952;51.090;-1.832;2022-07-24T09:46:59;4.28;;;1.77;;
51848;SDS011;38952;51.090;-1.832;2022-07-24T09:49:35;3.38;;;1.45;;
51848;SDS011;38952;51.090;-1.832;2022-07-24T09:54:31;2.67;;;1.65;;
51848;SDS011;38952;51.090;-1.832;2022-07-24T09:59:45;5.55;;;1.60;;
51848;SDS011;38952;51.090;-1.832;2022-07-24T10:02:16;5.72;;;1.45;;
51848;SDS011;38952;51.090;-1.832;2022-07-24T10:04:50;3.17;;;1.40;;
51848;SDS011;38952;51.090;-1.832;2022-07-24T10:07:17;10.95;;;2.03;;
51848;SDS011;38952;51.090;-1.832;2022-07-24T10:09:49;4.70;;;1.77;;
51848;SDS011;38952;51.090;-1.832;2022-07-24T10:12:17;8.20;;;1.90;;
51848;SDS011;38952;51.090;-1.832;2022-07-24T10:14:49;5.65;;;1.75;;
51848;SDS011;38952;51.090;-1.832;2022-07-24T10:17:16;4.38;;;1.75;;
51848;SDS011;38952;51.090;-1.832;2022-07-24T10:22:16;4.97;;;1.90;;
51848;SDS011;38952;51.090;-1.832;2022-07-24T10:24:53;5.20;;;1.92;;
51848;SDS011;38952;51.090;-1.832;2022-07-24T10:27:34;4.20;;;1.67;;
51848;SDS011;38952;51.090;-1.832;2022-07-24T10:30:05;6.70;;;1.80;;
51848;SDS011;38952;51.090;-1.832;2022-07-24T10:32:35;9.27;;;1.83;;
51848;SDS011;38952;51.090;-1.832;2022-07-24T10:35:04;8.07;;;1.70;;
51848;SDS011;38952;51.090;-1.832;2022-07-24T10:37:53;4.75;;;1.90;;
51848;SDS011;38952;51.090;-1.832;2022-07-24T10:43:08;9.65;;;2.20;;
51848;SDS011;38952;51.090;-1.832;2022-07-24T10:45:43;9.15;;;2.35;;
51848;SDS011;38952;51.090;-1.832;2022-07-24T10:48:32;2.72;;;1.50;;
51848;SDS011;38952;51.090;-1.832;2022-07-24T10:51:06;6.28;;;1.63;;
51848;SDS011;38952;51.090;-1.832;2022-07-24T10:58:56;5.85;;;2.03;;
51848;SDS011;38952;51.090;-1.832;2022-07-24T11:01:41;5.32;;;1.85;;
51848;SDS011;38952;51.090;-1.832;2022-07-24T11:06:51;4.70;;;1.98;;
51848;SDS011;38952;51.090;-1.832;2022-07-24T11:09:19;3.60;;;1.80;;
51848;SDS011;38952;51.090;-1.832;2022-07-24T11:14:17;3.78;;;1.65;;
51848;SDS011;38952;51.090;-1.832;2022-07-24T11:16:50;10.35;;;1.77;;
51848;SDS011;38952;51.090;-1.832;2022-07-24T11:21:42;8.23;;;1.77;;
51848;SDS011;38952;51.090;-1.832;2022-07-24T11:29:23;6.80;;;1.55;;
51848;SDS011;38952;51.090;-1.832;2022-07-24T11:31:56;4.07;;;1.75;;
51848;SDS011;38952;51.090;-1.832;2022-07-24T11:34:24;5.70;;;1.80;;
51848;SDS011;38952;51.090;-1.832;2022-07-24T11:36:50;6.28;;;1.50;;
51848;SDS011;38952;51.090;-1.832;2022-07-24T11:39:17;3.08;;;1.40;;
51848;SDS011;38952;51.090;-1.832;2022-07-24T11:41:48;6.55;;;1.50;;
51848;SDS011;38952;51.090;-1.832;2022-07-24T11:44:21;3.47;;;1.27;;
51848;SDS011;38952;51.090;-1.832;2022-07-24T11:47:07;4.57;;;1.27;;
51848;SDS011;38952;51.090;-1.832;2022-07-24T11:54:52;3.03;;;1.08;;
51848;SDS011;38952;51.090;-1.832;2022-07-24T11:57:24;4.90;;;0.93;;
51848;SDS011;38952;51.090;-1.832;2022-07-24T11:59:54;6.13;;;1.10;;
51848;SDS011;38952;51.090;-1.832;2022-07-24T12:02:25;2.97;;;1.20;;
51848;SDS011;38952;51.090;-1.832;2022-07-24T12:04:51;4.97;;;1.13;;
51848;SDS011;38952;51.090;-1.832;2022-07-24T12:07:24;5.78;;;1.13;;
51848;SDS011;38952;51.090;-1.832;2022-07-24T12:09:55;3.95;;;1.20;;
51848;SDS011;38952;51.090;-1.832;2022-07-24T12:12:32;4.07;;;0.82;;
51848;SDS011;38952;51.090;-1.832;2022-07-24T12:15:09;2.80;;;1.15;;
51848;SDS011;38952;51.090;-1.832;2022-07-24T12:20:24;4.45;;;1.00;;
51848;SDS011;38952;51.090;-1.832;2022-07-24T12:22:52;3.05;;;1.30;;
51848;SDS011;38952;51.090;-1.832;2022-07-24T12:25:18;3.45;;;0.90;;
51848;SDS011;38952;51.090;-1.832;2022-07-24T12:27:45;4.43;;;1.20;;
51848;SDS011;38952;51.090;-1.832;2022-07-24T12:32:56;4.82;;;1.05;;
51848;SDS011;38952;51.090;-1.832;2022-07-24T12:35:30;3.40;;;1.20;;
51848;SDS011;38952;51.090;-1.832;2022-07-24T12:37:58;3.10;;;1.48;;
51848;SDS011;38952;51.090;-1.832;2022-07-24T12:40:32;2.22;;;1.00;;
51848;SDS011;38952;51.090;-1.832;2022-07-24T12:43:04;2.70;;;0.80;;
51848;SDS011;38952;51.090;-1.832;2022-07-24T12:51:03;3.08;;;1.48;;
51848;SDS011;38952;51.090;-1.832;2022-07-24T12:53:37;4.97;;;1.13;;
51848;SDS011;38952;51.090;-1.832;2022-07-24T13:01:21;2.53;;;1.00;;
51848;SDS011;38952;51.090;-1.832;2022-07-24T13:04:00;3.70;;;1.00;;
51848;SDS011;38952;51.090;-1.832;2022-07-24T13:06:31;2.65;;;1.08;;
51848;SDS011;38952;51.090;-1.832;2022-07-24T13:11:37;4.63;;;1.42;;
51848;SDS011;38952;51.090;-1.832;2022-07-24T13:14:04;3.05;;;1.02;;
51848;SDS011;38952;51.090;-1.832;2022-07-24T13:16:31;8.90;;;1.15;;
51848;SDS011;38952;51.090;-1.832;2022-07-24T13:19:00;3.47;;;0.88;;
51848;SDS011;38952;51.090;-1.832;2022-07-24T13:21:27;5.13;;;2.38;;
51848;SDS011;38952;51.090;-1.832;2022-07-24T13:23:53;4.88;;;1.00;;
51848;SDS011;38952;51.090;-1.832;2022-07-24T13:26:19;3.53;;;1.10;;
51848;SDS011;38952;51.090;-1.832;2022-07-24T13:28:45;2.00;;;0.90;;
51848;SDS011;38952;51.090;-1.832;2022-07-24T13:31:10;3.00;;;1.10;;
51848;SDS011;38952;51.090;-1.832;2022-07-24T13:33:36;2.15;;;0.52;;
51848;SDS011;38952;51.090;-1.832;2022-07-24T13:36:02;1.85;;;0.80;;
51848;SDS011;38952;51.090;-1.832;2022-07-24T13:38:28;3.50;;;1.00;;
51848;SDS011;38952;51.090;-1.832;2022-07-24T13:40:53;3.55;;;1.15;;
51848;SDS011;38952;51.090;-1.832;2022-07-24T13:43:19;4.07;;;1.00;;
51848;SDS011;38952;51.090;-1.832;2022-07-24T13:45:44;6.38;;;1.20;;
51848;SDS011;38952;51.090;-1.832;2022-07-24T13:48:09;2.85;;;0.90;;
51848;SDS011;38952;51.090;-1.832;2022-07-24T13:50:35;1.77;;;0.88;;
51848;SDS011;38952;51.090;-1.832;2022-07-24T13:53:01;1.33;;;0.93;;
51848;SDS011;38952;51.090;-1.832;2022-07-24T13:55:26;4.30;;;1.00;;
51848;SDS011;38952;51.090;-1.832;2022-07-24T13:57:55;4.05;;;1.52;;
51848;SDS011;38952;51.090;-1.832;2022-07-24T14:00:20;2.80;;;1.00;;
51848;SDS011;38952;51.090;-1.832;2022-07-24T14:02:46;1.80;;;0.82;;
51848;SDS011;38952;51.090;-1.832;2022-07-24T14:05:11;3.10;;;0.93;;
51848;SDS011;38952;51.090;-1.832;2022-07-24T14:07:37;3.08;;;1.15;;
51848;SDS011;38952;51.090;-1.832;2022-07-24T14:10:03;0.88;;;0.60;;
51848;SDS011;38952;51.090;-1.832;2022-07-24T14:12:31;3.83;;;1.00;;
51848;SDS011;38952;51.090;-1.832;2022-07-24T14:14:57;3.35;;;1.10;;
51848;SDS011;38952;51.090;-1.832;2022-07-24T14:17:22;2.10;;;0.90;;
51848;SDS011;38952;51.090;-1.832;2022-07-24T14:19:48;9.85;;;0.95;;
51848;SDS011;38952;51.090;-1.832;2022-07-24T14:22:13;3.00;;;1.15;;
51848;SDS011;38952;51.090;-1.832;2022-07-24T14:24:38;2.25;;;1.10;;
51848;SDS011;38952;51.090;-1.832;2022-07-24T14:27:04;3.10;;;1.20;;
51848;SDS011;38952;51.090;-1.832;2022-07-24T14:29:29;2.63;;;1.25;;
51848;SDS011;38952;51.090;-1.832;2022-07-24T14:31:55;4.82;;;1.00;;
51848;SDS011;38952;51.090;-1.832;2022-07-24T14:34:23;2.25;;;0.90;;
51848;SDS011;38952;51.090;-1.832;2022-07-24T14:36:48;2.50;;;0.80;;
51848;SDS011;38952;51.090;-1.832;2022-07-24T14:39:16;13.43;;;1.13;;
51848;SDS011;38952;51.090;-1.832;2022-07-24T14:41:43;8.65;;;1.13;;
51848;SDS011;38952;51.090;-1.832;2022-07-24T14:44:21;2.10;;;0.75;;
51848;SDS011;38952;51.090;-1.832;2022-07-24T14:46:47;2.55;;;0.93;;
51848;SDS011;38952;51.090;-1.832;2022-07-24T14:49:12;5.00;;;0.82;;
51848;SDS011;38952;51.090;-1.832;2022-07-24T14:51:38;5.90;;;1.20;;
51848;SDS011;38952;51.090;-1.832;2022-07-24T14:54:04;4.35;;;0.90;;
51848;SDS011;38952;51.090;-1.832;2022-07-24T14:56:30;6.05;;;0.90;;
51848;SDS011;38952;51.090;-1.832;2022-07-24T14:58:56;4.32;;;1.10;;
51848;SDS011;38952;51.090;-1.832;2022-07-24T15:01:22;2.45;;;1.13;;
51848;SDS011;38952;51.090;-1.832;2022-07-24T15:03:47;5.60;;;1.00;;
51848;SDS011;38952;51.090;-1.832;2022-07-24T15:06:13;2.92;;;0.98;;
51848;SDS011;38952;51.090;-1.832;2022-07-24T15:08:38;3.15;;;0.77;;
51848;SDS011;38952;51.090;-1.832;2022-07-24T15:11:04;4.43;;;0.77;;
51848;SDS011;38952;51.090;-1.832;2022-07-24T15:13:29;2.47;;;1.10;;
51848;SDS011;38952;51.090;-1.832;2022-07-24T15:15:54;4.22;;;1.15;;
51848;SDS011;38952;51.090;-1.832;2022-07-24T15:18:21;5.60;;;1.40;;
51848;SDS011;38952;51.090;-1.832;2022-07-24T15:20:47;3.53;;;1.02;;
51848;SDS011;38952;51.090;-1.832;2022-07-24T15:23:13;1.25;;;0.63;;
51848;SDS011;38952;51.090;-1.832;2022-07-24T15:25:39;3.20;;;0.80;;